createdAt,value
2022-10-16T00:01:29.752Z,41.00
2022-10-16T00:03:59.180Z,41.35
2022-10-16T00:06:27.651Z,41.83
2022-10-16T00:08:55.661Z,41.72
2022-10-16T00:11:29.330Z,49.13
2022-10-16T00:14:00.432Z,42.47
2022-10-16T00:16:29.594Z,47.25
2022-10-16T00:18:58.056Z,43.75
2022-10-16T00:21:28.410Z,42.22
2022-10-16T00:24:14.361Z,42.38
2022-10-16T00:26:42.073Z,41.60
2022-10-16T00:29:10.198Z,44.72
2022-10-16T00:31:37.757Z,45.17
2022-10-16T00:34:05.295Z,43.53
2022-10-16T00:36:33.304Z,45.72
2022-10-16T00:39:02.421Z,47.47
2022-10-16T00:41:31.855Z,41.83
2022-10-16T00:44:01.282Z,42.95
2022-10-16T00:46:41.923Z,45.42
2022-10-16T00:49:15.867Z,43.33
2022-10-16T00:51:46.378Z,44.30
2022-10-16T00:54:28.704Z,44.67
2022-10-16T00:56:59.223Z,41.75
2022-10-16T00:59:31.228Z,44.28
2022-10-16T01:01:59.796Z,43.20
2022-10-16T01:04:31.587Z,45.17
2022-10-16T01:07:12.004Z,40.88
2022-10-16T01:10:14.747Z,44.17
2022-10-16T01:13:27.728Z,43.45
2022-10-16T01:16:07.930Z,44.33
2022-10-16T01:18:42.139Z,41.83
2022-10-16T01:21:15.313Z,45.65
2022-10-16T01:24:01.399Z,40.40
2022-10-16T01:26:44.984Z,41.35
2022-10-16T01:29:25.060Z,40.63
2022-10-16T01:32:00.392Z,44.97
2022-10-16T01:34:38.686Z,42.60
2022-10-16T01:37:12.210Z,44.88
2022-10-16T01:39:42.472Z,41.78
2022-10-16T01:42:14.993Z,43.70
2022-10-16T01:44:44.633Z,44.30
2022-10-16T01:47:15.049Z,43.53
2022-10-16T01:49:45.459Z,44.85
2022-10-16T01:52:20.782Z,42.63
2022-10-16T01:54:52.850Z,43.40
2022-10-16T01:57:22.610Z,40.17
2022-10-16T01:59:55.593Z,40.58
2022-10-16T02:02:24.227Z,43.15
2022-10-16T02:05:02.818Z,38.88
2022-10-16T02:07:30.258Z,43.58
2022-10-16T02:09:57.952Z,40.67
2022-10-16T02:12:29.383Z,45.60
2022-10-16T02:14:57.026Z,41.03
2022-10-16T02:17:24.826Z,44.58
2022-10-16T02:19:54.914Z,39.35
2022-10-16T02:22:47.969Z,40.70
2022-10-16T02:25:41.172Z,40.72
2022-10-16T02:28:14.101Z,41.63
2022-10-16T02:30:49.382Z,42.60
2022-10-16T02:33:18.700Z,41.72
2022-10-16T02:35:49.549Z,41.80
2022-10-16T02:38:18.635Z,39.72
2022-10-16T02:40:46.193Z,39.60
2022-10-16T02:43:14.361Z,45.47
2022-10-16T02:45:42.003Z,41.25
2022-10-16T02:48:09.458Z,42.08
2022-10-16T02:50:36.906Z,42.83
2022-10-16T02:53:04.296Z,37.35
2022-10-16T02:55:31.849Z,39.22
2022-10-16T02:57:59.324Z,43.38
2022-10-16T03:00:26.805Z,37.45
2022-10-16T03:02:54.436Z,39.85
2022-10-16T03:07:49.233Z,34.70
2022-10-16T03:10:16.665Z,34.83
2022-10-16T03:12:44.073Z,39.80
2022-10-16T03:15:11.639Z,38.53
2022-10-16T03:17:39.040Z,38.85
2022-10-16T03:20:07.010Z,40.80
2022-10-16T03:22:34.333Z,44.05
2022-10-16T03:25:02.169Z,38.00
2022-10-16T03:27:29.902Z,39.58
2022-10-16T03:29:57.808Z,38.90
2022-10-16T03:32:26.268Z,41.75
2022-10-16T03:34:55.304Z,37.90
2022-10-16T03:37:22.816Z,40.22
2022-10-16T03:39:50.262Z,37.53
2022-10-16T03:42:17.788Z,37.15
2022-10-16T03:44:45.269Z,36.30
2022-10-16T03:47:12.619Z,38.63
2022-10-16T03:49:40.161Z,35.83
2022-10-16T03:52:07.713Z,37.33
2022-10-16T03:54:35.235Z,39.10
2022-10-16T03:57:02.747Z,38.38
2022-10-16T03:59:30.373Z,38.20
2022-10-16T04:01:57.960Z,38.22
2022-10-16T04:04:26.051Z,41.50
2022-10-16T04:06:53.474Z,35.97
2022-10-16T04:09:20.857Z,39.08
2022-10-16T04:11:48.375Z,42.92
2022-10-16T04:14:15.777Z,37.60
2022-10-16T04:16:43.190Z,37.55
2022-10-16T04:19:12.118Z,37.20
2022-10-16T04:21:39.510Z,40.70
2022-10-16T04:24:07.031Z,38.92
2022-10-16T04:26:34.457Z,39.13
2022-10-16T04:29:01.941Z,39.95
2022-10-16T04:31:29.589Z,37.55
2022-10-16T04:33:57.181Z,38.53
2022-10-16T04:36:28.280Z,44.20
2022-10-16T04:38:56.839Z,40.78
2022-10-16T04:41:24.330Z,41.53
2022-10-16T04:43:51.971Z,40.80
2022-10-16T04:46:19.358Z,38.92
2022-10-16T04:48:47.830Z,39.38
2022-10-16T04:51:15.303Z,40.78
2022-10-16T04:53:42.667Z,39.85
2022-10-16T04:56:10.117Z,38.53
2022-10-16T04:58:37.498Z,36.35
2022-10-16T05:01:05.038Z,38.10
2022-10-16T05:03:32.553Z,36.90
2022-10-16T05:06:00.106Z,36.17
2022-10-16T05:08:27.585Z,35.83
2022-10-16T05:10:55.262Z,39.22
2022-10-16T05:13:22.669Z,38.40
2022-10-16T05:15:50.274Z,44.28
2022-10-16T05:18:17.814Z,40.80
2022-10-16T05:20:45.311Z,44.30
2022-10-16T05:25:41.122Z,41.28
2022-10-16T05:28:08.666Z,43.72
2022-10-16T05:30:38.662Z,42.03
2022-10-16T05:33:06.161Z,40.10
2022-10-16T05:35:36.123Z,40.05
2022-10-16T05:38:03.529Z,41.40
2022-10-16T05:40:30.917Z,42.13
2022-10-16T05:42:58.364Z,37.72
2022-10-16T05:45:28.887Z,42.53
2022-10-16T05:47:56.372Z,41.85
2022-10-16T05:50:23.788Z,42.35
2022-10-16T05:52:51.268Z,40.50
2022-10-16T05:55:18.759Z,42.95
2022-10-16T05:57:46.281Z,40.35
2022-10-16T06:00:13.744Z,42.92
2022-10-16T06:02:41.386Z,39.22
2022-10-16T06:05:08.965Z,42.75
2022-10-16T06:07:37.197Z,41.17
2022-10-16T06:10:05.781Z,41.17
2022-10-16T06:12:33.394Z,40.35
2022-10-16T06:15:00.941Z,43.83
2022-10-16T06:17:28.642Z,43.55
2022-10-16T06:19:56.317Z,39.40
2022-10-16T06:22:23.724Z,43.33
2022-10-16T06:24:51.143Z,45.28
2022-10-16T06:27:18.649Z,45.55
2022-10-16T06:29:46.494Z,40.28
2022-10-16T06:32:14.040Z,39.75
2022-10-16T06:34:44.070Z,42.78
2022-10-16T06:37:11.792Z,41.75
2022-10-16T06:39:39.216Z,42.63
2022-10-16T06:42:06.791Z,46.03
2022-10-16T06:44:40.401Z,40.47
2022-10-16T06:47:08.290Z,42.20
2022-10-16T06:49:35.822Z,41.90
2022-10-16T06:52:03.996Z,46.30
2022-10-16T06:54:36.441Z,43.45
2022-10-16T06:57:09.432Z,39.65
2022-10-16T06:59:36.897Z,39.90
2022-10-16T07:02:04.425Z,39.78
2022-10-16T07:04:31.882Z,41.95
2022-10-16T07:07:04.448Z,41.88
2022-10-16T07:09:34.513Z,38.67
2022-10-16T07:12:01.943Z,40.05
2022-10-16T07:14:29.750Z,39.00
2022-10-16T07:16:57.310Z,41.00
2022-10-16T07:19:28.344Z,39.75
2022-10-16T07:21:58.284Z,39.30
2022-10-16T07:24:25.944Z,39.85
2022-10-16T07:26:53.529Z,39.85
2022-10-16T07:29:22.657Z,40.08
2022-10-16T07:31:50.733Z,41.38
2022-10-16T07:34:19.898Z,39.60
2022-10-16T07:36:50.741Z,43.72
2022-10-16T07:39:18.526Z,44.25
2022-10-16T07:41:46.065Z,44.58
2022-10-16T07:44:13.593Z,43.40
2022-10-16T07:46:41.037Z,44.22
2022-10-16T07:49:09.979Z,40.53
2022-10-16T07:51:39.231Z,42.28
2022-10-16T07:54:06.724Z,43.17
2022-10-16T07:56:34.332Z,40.88
2022-10-16T07:59:04.600Z,43.55
2022-10-16T08:01:32.045Z,44.25
2022-10-16T08:03:59.562Z,46.00
2022-10-16T08:06:28.127Z,45.70
2022-10-16T08:08:58.426Z,45.17
2022-10-16T08:11:25.958Z,45.05
2022-10-16T08:13:53.698Z,42.03
2022-10-16T08:16:21.601Z,43.65
2022-10-16T08:18:49.663Z,47.03
2022-10-16T08:21:21.281Z,46.88
2022-10-16T08:23:54.598Z,46.42
2022-10-16T08:26:24.927Z,45.80
2022-10-16T08:28:53.120Z,49.20
2022-10-16T08:31:22.313Z,45.05
2022-10-16T08:33:50.119Z,43.13
2022-10-16T08:42:02.200Z,38.20
2022-10-16T08:45:24.124Z,37.97
2022-10-16T08:48:10.932Z,39.40
2022-10-16T08:50:40.947Z,39.40
2022-10-16T08:53:16.989Z,38.10
2022-10-16T08:55:47.751Z,39.00
2022-10-16T08:58:21.327Z,36.70
2022-10-16T09:01:18.050Z,38.50
2022-10-16T09:04:16.157Z,36.85
2022-10-16T09:06:47.845Z,39.90
2022-10-16T09:09:54.773Z,38.78
2022-10-16T09:13:08.710Z,36.22
2022-10-16T09:15:48.945Z,38.08
2022-10-16T09:19:03.719Z,39.70
2022-10-16T09:21:34.702Z,40.67
2022-10-16T09:24:15.775Z,40.75
2022-10-16T09:26:44.088Z,40.05
2022-10-16T09:29:16.449Z,41.15
2022-10-16T09:31:44.336Z,43.03
2022-10-16T09:34:36.883Z,40.03
2022-10-16T09:37:09.704Z,41.53
2022-10-16T09:39:47.538Z,40.47
2022-10-16T09:42:31.674Z,43.92
2022-10-16T09:44:59.457Z,42.33
2022-10-16T09:47:30.196Z,42.13
2022-10-16T09:50:21.620Z,40.05
2022-10-16T09:52:49.290Z,38.88
2022-10-16T09:55:19.193Z,42.35
2022-10-16T09:57:51.421Z,41.00
2022-10-16T10:00:19.696Z,39.90
2022-10-16T10:02:47.802Z,40.83
2022-10-16T10:05:28.046Z,43.80
2022-10-16T10:08:00.143Z,37.28
2022-10-16T10:10:32.853Z,35.33
2022-10-16T10:13:00.555Z,35.65
2022-10-16T10:15:34.312Z,34.13
2022-10-16T10:18:04.226Z,36.22
2022-10-16T10:20:39.143Z,41.45
2022-10-16T10:23:24.623Z,37.50
2022-10-16T10:28:56.865Z,37.08
2022-10-16T10:31:47.148Z,40.45
2022-10-16T10:34:32.098Z,37.75
2022-10-16T10:37:26.499Z,38.47
2022-10-16T10:40:02.168Z,32.17
2022-10-16T10:42:57.352Z,35.80
2022-10-16T10:45:38.251Z,35.17
2022-10-16T10:48:17.446Z,34.53
2022-10-16T10:50:58.840Z,38.10
2022-10-16T10:53:39.987Z,36.00
2022-10-16T10:56:40.244Z,39.83
2022-10-16T10:59:33.766Z,34.20
2022-10-16T11:02:05.721Z,38.03
2022-10-16T11:05:00.382Z,36.03
2022-10-16T11:07:41.895Z,35.05
2022-10-16T11:10:23.932Z,33.00
2022-10-16T11:13:16.213Z,38.53
2022-10-16T11:15:50.969Z,35.95
2022-10-16T11:18:46.680Z,35.42
2022-10-16T11:21:16.937Z,36.42
2022-10-16T11:23:58.331Z,39.53
2022-10-16T11:26:35.654Z,33.15
2022-10-16T11:29:09.800Z,33.83
2022-10-16T11:31:42.302Z,36.30
2022-10-16T11:34:23.142Z,34.40
2022-10-16T11:36:57.731Z,33.78
2022-10-16T11:39:28.404Z,33.47
2022-10-16T11:42:00.507Z,31.80
2022-10-16T11:44:43.586Z,33.90
2022-10-16T11:51:28.165Z,34.80
2022-10-16T11:54:14.423Z,38.38
2022-10-16T11:57:49.460Z,34.78
2022-10-16T12:00:56.651Z,35.03
2022-10-16T12:03:24.399Z,34.65
2022-10-16T12:07:04.666Z,38.28
2022-10-16T12:09:35.925Z,34.58
2022-10-16T12:12:05.406Z,36.90
2022-10-16T12:15:14.776Z,35.33
2022-10-16T12:17:39.902Z,36.72
2022-10-16T12:23:48.769Z,37.45
2022-10-16T12:26:30.018Z,36.13
2022-10-16T12:29:23.363Z,34.60
2022-10-16T12:31:58.234Z,36.70
2022-10-16T12:34:45.509Z,36.50
2022-10-16T12:37:22.537Z,37.88
2022-10-16T12:40:24.816Z,34.78
2022-10-16T12:43:34.489Z,36.55
2022-10-16T12:47:30.342Z,37.28
2022-10-16T12:49:58.947Z,35.58
2022-10-16T12:52:28.900Z,34.70
2022-10-16T12:55:01.696Z,34.00
2022-10-16T12:57:29.602Z,35.85
2022-10-16T13:00:52.824Z,35.38
2022-10-16T13:03:59.017Z,34.85
2022-10-16T13:07:42.926Z,33.47
2022-10-16T13:10:24.646Z,35.63
2022-10-16T13:13:04.143Z,36.38
2022-10-16T13:16:21.532Z,34.08
2022-10-16T13:19:42.767Z,34.20
2022-10-16T13:23:40.510Z,34.97
2022-10-16T13:26:37.403Z,33.13
2022-10-16T13:30:14.668Z,33.55
2022-10-16T13:32:47.548Z,35.83
2022-10-16T13:35:29.833Z,30.77
2022-10-16T13:38:14.829Z,32.97
2022-10-16T13:44:27.525Z,36.40
2022-10-16T13:47:02.517Z,37.17
2022-10-16T13:50:05.350Z,32.80
2022-10-16T13:52:35.409Z,33.80
2022-10-16T13:56:30.897Z,36.10
2022-10-16T13:59:47.836Z,32.83
2022-10-16T14:03:35.538Z,31.98
2022-10-16T14:06:24.781Z,31.02
2022-10-16T14:09:09.174Z,31.67
2022-10-16T14:11:47.032Z,33.03
2022-10-16T14:15:00.658Z,33.90
2022-10-16T14:17:30.899Z,33.33
2022-10-16T14:20:55.718Z,32.95
2022-10-16T14:23:40.588Z,30.33
2022-10-16T14:26:09.454Z,32.92
2022-10-16T14:28:41.622Z,33.35
2022-10-16T14:31:38.997Z,30.10
2022-10-16T14:34:25.653Z,30.40
2022-10-16T14:37:13.694Z,30.42
2022-10-16T14:39:42.188Z,32.10
2022-10-16T14:46:38.778Z,32.50
2022-10-16T15:00:34.902Z,31.45
2022-10-16T15:07:14.809Z,34.80
2022-10-16T15:13:38.223Z,27.50
2022-10-16T15:16:37.705Z,31.15
2022-10-16T15:19:46.644Z,28.92
2022-10-16T15:22:27.069Z,29.50
2022-10-16T15:25:36.052Z,28.83
2022-10-16T15:28:06.623Z,27.80
2022-10-16T15:30:34.909Z,31.67
2022-10-16T15:33:03.248Z,29.17
2022-10-16T15:40:10.733Z,32.00
2022-10-16T17:33:50.845Z,51.78
2022-10-16T17:37:17.330Z,49.78
2022-10-16T17:40:09.444Z,51.83
2022-10-16T17:54:04.856Z,51.25
2022-10-16T18:01:50.172Z,52.40
2022-10-16T18:05:19.547Z,50.90
2022-10-16T18:08:03.452Z,52.40
2022-10-16T18:26:07.289Z,54.08
2022-10-16T18:30:49.239Z,53.35
2022-10-16T18:33:26.206Z,51.17
2022-10-16T18:40:09.092Z,49.53
2022-10-16T18:42:55.897Z,52.72
2022-10-16T18:45:43.263Z,58.83
2022-10-16T18:52:50.704Z,55.92
2022-10-16T18:56:28.904Z,56.60
2022-10-16T18:59:30.208Z,53.70
2022-10-16T19:05:17.718Z,57.78
2022-10-16T19:12:58.669Z,53.65
2022-10-16T19:15:58.209Z,55.88
2022-10-16T19:18:43.721Z,53.10
2022-10-16T19:21:33.304Z,53.50
2022-10-16T19:25:34.614Z,56.83
2022-10-16T19:28:25.159Z,50.10
2022-10-16T19:30:56.697Z,50.65
2022-10-16T19:33:58.417Z,48.13
2022-10-16T19:38:04.741Z,50.53
2022-10-16T19:41:24.438Z,50.80
2022-10-16T19:43:46.404Z,52.22
2022-10-16T19:47:16.820Z,47.60
2022-10-16T19:54:57.835Z,55.72
2022-10-16T20:02:04.931Z,48.08
2022-10-16T20:07:45.235Z,47.95
2022-10-16T20:18:43.068Z,54.63
2022-10-16T20:21:40.377Z,51.45
2022-10-16T20:29:35.205Z,51.83
2022-10-16T20:40:34.576Z,51.67
2022-10-16T20:43:35.556Z,48.85
2022-10-16T20:52:29.777Z,51.42
2022-10-16T20:55:00.533Z,51.97
2022-10-16T20:57:55.222Z,48.67
2022-10-16T21:06:34.534Z,46.83
2022-10-16T21:13:48.092Z,50.35
2022-10-16T21:17:24.110Z,53.17
2022-10-16T21:20:20.931Z,53.10
2022-10-16T21:23:52.434Z,52.30
2022-10-16T21:27:34.689Z,51.25
2022-10-16T21:38:40.858Z,51.42
2022-10-16T21:41:53.908Z,53.40
2022-10-16T21:44:23.637Z,50.70
2022-10-16T21:47:20.713Z,53.65
2022-10-16T21:50:17.479Z,53.05
2022-10-16T21:53:07.169Z,52.92
2022-10-16T21:55:42.579Z,49.13
2022-10-16T21:59:24.577Z,51.80
2022-10-16T22:02:14.161Z,54.92
2022-10-16T22:04:51.968Z,50.38
2022-10-16T22:07:59.186Z,52.75
2022-10-16T22:10:26.934Z,50.42
2022-10-16T22:12:56.999Z,51.50
2022-10-16T22:15:24.715Z,51.67
2022-10-16T22:17:59.934Z,48.05
2022-10-16T22:20:52.813Z,49.35
2022-10-16T22:24:30.528Z,49.65
2022-10-16T22:27:01.154Z,53.22
2022-10-16T22:29:29.994Z,52.63
2022-10-16T22:31:57.734Z,52.47
2022-10-16T22:34:29.695Z,49.17
2022-10-16T22:36:57.356Z,51.55
2022-10-16T22:39:25.008Z,51.20
2022-10-16T22:41:52.702Z,51.60
2022-10-16T22:44:22.621Z,49.35
2022-10-16T22:46:50.351Z,49.85
2022-10-16T22:49:25.600Z,48.50
2022-10-16T22:51:53.168Z,49.10
2022-10-16T22:54:23.176Z,49.75
2022-10-16T22:57:51.332Z,47.75
2022-10-16T23:00:22.249Z,47.88
2022-10-16T23:03:03.119Z,52.65
2022-10-16T23:05:33.314Z,49.58
2022-10-16T23:08:03.037Z,51.53
2022-10-16T23:10:30.688Z,50.72
2022-10-16T23:13:23.903Z,49.63
2022-10-16T23:15:51.511Z,51.30
2022-10-16T23:18:21.813Z,54.88
2022-10-16T23:20:49.638Z,51.75
2022-10-16T23:23:25.576Z,47.95
2022-10-16T23:25:53.157Z,52.90
2022-10-16T23:28:22.001Z,47.80
2022-10-16T23:30:52.228Z,50.60
2022-10-16T23:33:20.298Z,51.03
2022-10-16T23:35:47.972Z,52.17
2022-10-16T23:38:17.796Z,49.92
2022-10-16T23:41:04.769Z,48.67
2022-10-16T23:43:57.232Z,51.13
2022-10-16T23:46:40.232Z,46.45
2022-10-16T23:49:08.046Z,50.35
2022-10-16T23:51:43.357Z,49.92
2022-10-16T23:57:18.227Z,47.83
2022-10-16T23:59:46.404Z,51.10
